Aviation Digital Data Service (ADDS)

Output produced by METARs form (1414 UTC 01 October 2014)
found at http://aviationweather.gov/adds/metars/
 
KPBG 011120Z 0112/0212 02006KT 2SM BR OVC005 
     FM011500 01004KT P6SM SCT005 BKN025 
     FM011700 34004KT P6SM SCT040 
     FM020000 VRB03KT P6SM SCT025 BKN030